sensor_id;sensor_type;location;lat;lon;timestamp;temperature;humidity
57058;DHT22;55017;52.848;6.748;2023-06-26T00:01:23;22.10;99.90
57058;DHT22;55017;52.848;6.748;2023-06-26T00:03:49;22.00;99.90
57058;DHT22;55017;52.848;6.748;2023-06-26T00:06:14;22.00;99.90
57058;DHT22;55017;52.848;6.748;2023-06-26T00:08:40;22.20;99.90
57058;DHT22;55017;52.848;6.748;2023-06-26T00:11:06;22.10;99.90
57058;DHT22;55017;52.848;6.748;2023-06-26T00:13:31;22.00;99.90
57058;DHT22;55017;52.848;6.748;2023-06-26T00:15:57;21.90;99.90
57058;DHT22;55017;52.848;6.748;2023-06-26T00:18:22;22.00;99.90
57058;DHT22;55017;52.848;6.748;2023-06-26T00:20:49;22.70;99.90
57058;DHT22;55017;52.848;6.748;2023-06-26T00:23:17;22.40;99.90
57058;DHT22;55017;52.848;6.748;2023-06-26T00:25:44;22.30;99.90
57058;DHT22;55017;52.848;6.748;2023-06-26T00:28:09;22.90;99.40
57058;DHT22;55017;52.848;6.748;2023-06-26T00:30:35;22.50;99.90
57058;DHT22;55017;52.848;6.748;2023-06-26T00:33:01;22.30;99.90
57058;DHT22;55017;52.848;6.748;2023-06-26T00:35:26;22.30;99.90
57058;DHT22;55017;52.848;6.748;2023-06-26T00:37:52;22.30;99.90
57058;DHT22;55017;52.848;6.748;2023-06-26T00:40:18;22.90;98.80
57058;DHT22;55017;52.848;6.748;2023-06-26T00:42:43;23.20;97.30
57058;DHT22;55017;52.848;6.748;2023-06-26T00:45:09;22.70;98.90
57058;DHT22;55017;52.848;6.748;2023-06-26T00:47:35;22.50;99.20
57058;DHT22;55017;52.848;6.748;2023-06-26T00:50:01;22.40;99.70
57058;DHT22;55017;52.848;6.748;2023-06-26T00:52:27;22.40;99.90
57058;DHT22;55017;52.848;6.748;2023-06-26T00:54:52;22.30;99.90
57058;DHT22;55017;52.848;6.748;2023-06-26T00:57:18;22.20;99.90
57058;DHT22;55017;52.848;6.748;2023-06-26T00:59:44;22.30;99.90
57058;DHT22;55017;52.848;6.748;2023-06-26T01:02:09;22.90;97.40
57058;DHT22;55017;52.848;6.748;2023-06-26T01:04:35;23.20;96.40
57058;DHT22;55017;52.848;6.748;2023-06-26T01:07:02;22.90;97.50
57058;DHT22;55017;52.848;6.748;2023-06-26T01:09:30;22.70;97.90
57058;DHT22;55017;52.848;6.748;2023-06-26T01:11:56;22.50;98.00
57058;DHT22;55017;52.848;6.748;2023-06-26T01:14:23;22.60;98.00
57058;DHT22;55017;52.848;6.748;2023-06-26T01:16:50;22.60;98.10
57058;DHT22;55017;52.848;6.748;2023-06-26T01:19:24;22.50;98.10
57058;DHT22;55017;52.848;6.748;2023-06-26T01:24:32;22.40;98.40
57058;DHT22;55017;52.848;6.748;2023-06-26T01:26:59;22.40;98.40
57058;DHT22;55017;52.848;6.748;2023-06-26T01:29:26;22.40;98.60
57058;DHT22;55017;52.848;6.748;2023-06-26T01:31:54;22.40;98.70
57058;DHT22;55017;52.848;6.748;2023-06-26T01:34:19;22.30;98.60
57058;DHT22;55017;52.848;6.748;2023-06-26T01:36:45;22.90;96.80
57058;DHT22;55017;52.848;6.748;2023-06-26T01:39:15;22.50;97.30
57058;DHT22;55017;52.848;6.748;2023-06-26T01:41:41;22.40;98.30
57058;DHT22;55017;52.848;6.748;2023-06-26T01:44:18;22.30;98.30
57058;DHT22;55017;52.848;6.748;2023-06-26T01:47:00;22.30;98.50
57058;DHT22;55017;52.848;6.748;2023-06-26T01:49:49;22.30;98.70
57058;DHT22;55017;52.848;6.748;2023-06-26T01:55:21;22.10;98.90
57058;DHT22;55017;52.848;6.748;2023-06-26T01:57:47;22.20;99.10
57058;DHT22;55017;52.848;6.748;2023-06-26T02:00:18;22.90;97.60
57058;DHT22;55017;52.848;6.748;2023-06-26T02:02:44;22.50;98.20
57058;DHT22;55017;52.848;6.748;2023-06-26T02:05:11;22.30;98.70
57058;DHT22;55017;52.848;6.748;2023-06-26T02:07:37;22.20;98.90
57058;DHT22;55017;52.848;6.748;2023-06-26T02:10:03;22.10;99.20
57058;DHT22;55017;52.848;6.748;2023-06-26T02:12:28;22.10;99.40
57058;DHT22;55017;52.848;6.748;2023-06-26T02:14:54;22.10;99.50
57058;DHT22;55017;52.848;6.748;2023-06-26T02:17:19;22.10;99.60
57058;DHT22;55017;52.848;6.748;2023-06-26T02:19:45;22.00;99.80
57058;DHT22;55017;52.848;6.748;2023-06-26T02:22:16;22.00;99.90
57058;DHT22;55017;52.848;6.748;2023-06-26T02:24:42;22.00;99.90
57058;DHT22;55017;52.848;6.748;2023-06-26T02:27:09;21.90;99.90
57058;DHT22;55017;52.848;6.748;2023-06-26T02:29:35;21.90;99.90
57058;DHT22;55017;52.848;6.748;2023-06-26T02:32:01;21.80;99.90
57058;DHT22;55017;52.848;6.748;2023-06-26T02:34:26;21.80;99.90
57058;DHT22;55017;52.848;6.748;2023-06-26T02:36:53;21.70;99.90
57058;DHT22;55017;52.848;6.748;2023-06-26T02:39:21;21.60;99.90
57058;DHT22;55017;52.848;6.748;2023-06-26T02:41:47;22.30;99.90
57058;DHT22;55017;52.848;6.748;2023-06-26T02:44:13;21.80;99.90
57058;DHT22;55017;52.848;6.748;2023-06-26T02:46:40;21.60;99.90
57058;DHT22;55017;52.848;6.748;2023-06-26T02:49:06;21.40;99.90
57058;DHT22;55017;52.848;6.748;2023-06-26T02:51:34;21.30;99.90
57058;DHT22;55017;52.848;6.748;2023-06-26T02:54:00;21.90;99.90
57058;DHT22;55017;52.848;6.748;2023-06-26T02:56:26;21.50;99.90
57058;DHT22;55017;52.848;6.748;2023-06-26T02:58:58;22.00;99.90
57058;DHT22;55017;52.848;6.748;2023-06-26T03:01:24;21.60;99.90
57058;DHT22;55017;52.848;6.748;2023-06-26T03:03:50;21.40;99.90
57058;DHT22;55017;52.848;6.748;2023-06-26T03:06:16;21.30;99.90
57058;DHT22;55017;52.848;6.748;2023-06-26T03:08:41;21.20;99.90
57058;DHT22;55017;52.848;6.748;2023-06-26T03:11:08;21.10;99.90
57058;DHT22;55017;52.848;6.748;2023-06-26T03:13:37;21.00;99.90
57058;DHT22;55017;52.848;6.748;2023-06-26T03:16:03;20.90;99.90
57058;DHT22;55017;52.848;6.748;2023-06-26T03:18:29;20.80;99.90
57058;DHT22;55017;52.848;6.748;2023-06-26T03:20:55;20.90;99.90
57058;DHT22;55017;52.848;6.748;2023-06-26T03:23:22;20.80;99.90
57058;DHT22;55017;52.848;6.748;2023-06-26T03:25:48;20.90;99.90
57058;DHT22;55017;52.848;6.748;2023-06-26T03:28:14;20.80;99.90
57058;DHT22;55017;52.848;6.748;2023-06-26T03:30:40;20.70;99.90
57058;DHT22;55017;52.848;6.748;2023-06-26T03:33:05;20.60;99.90
57058;DHT22;55017;52.848;6.748;2023-06-26T03:35:31;20.70;99.90
57058;DHT22;55017;52.848;6.748;2023-06-26T03:37:57;20.60;99.90
57058;DHT22;55017;52.848;6.748;2023-06-26T03:40:23;20.60;99.90
57058;DHT22;55017;52.848;6.748;2023-06-26T03:42:49;20.50;99.90
57058;DHT22;55017;52.848;6.748;2023-06-26T03:45:15;20.60;99.90
57058;DHT22;55017;52.848;6.748;2023-06-26T03:47:40;21.30;99.90
57058;DHT22;55017;52.848;6.748;2023-06-26T03:50:06;21.00;99.90
57058;DHT22;55017;52.848;6.748;2023-06-26T03:52:32;21.40;99.90
57058;DHT22;55017;52.848;6.748;2023-06-26T03:54:58;21.10;99.90
57058;DHT22;55017;52.848;6.748;2023-06-26T03:57:24;21.20;99.90
57058;DHT22;55017;52.848;6.748;2023-06-26T03:59:50;20.80;99.90
57058;DHT22;55017;52.848;6.748;2023-06-26T04:02:16;20.70;99.90
57058;DHT22;55017;52.848;6.748;2023-06-26T04:04:41;20.90;99.90
57058;DHT22;55017;52.848;6.748;2023-06-26T04:07:07;20.90;99.90
57058;DHT22;55017;52.848;6.748;2023-06-26T04:09:32;20.70;99.90
57058;DHT22;55017;52.848;6.748;2023-06-26T04:11:58;20.80;99.90
57058;DHT22;55017;52.848;6.748;2023-06-26T04:14:24;21.60;99.90
57058;DHT22;55017;52.848;6.748;2023-06-26T04:16:49;21.30;99.90
57058;DHT22;55017;52.848;6.748;2023-06-26T04:19:15;21.20;99.90
57058;DHT22;55017;52.848;6.748;2023-06-26T04:21:40;21.30;99.90
57058;DHT22;55017;52.848;6.748;2023-06-26T04:24:06;21.30;99.90
57058;DHT22;55017;52.848;6.748;2023-06-26T04:26:32;21.30;99.90
57058;DHT22;55017;52.848;6.748;2023-06-26T04:28:57;21.30;99.90
57058;DHT22;55017;52.848;6.748;2023-06-26T04:31:23;21.90;99.90
57058;DHT22;55017;52.848;6.748;2023-06-26T04:33:48;21.60;99.90
57058;DHT22;55017;52.848;6.748;2023-06-26T04:36:20;21.50;99.90
57058;DHT22;55017;52.848;6.748;2023-06-26T04:38:46;21.40;99.90
57058;DHT22;55017;52.848;6.748;2023-06-26T04:41:13;21.40;99.90
57058;DHT22;55017;52.848;6.748;2023-06-26T04:43:39;21.40;99.90
57058;DHT22;55017;52.848;6.748;2023-06-26T04:46:05;21.40;99.90
57058;DHT22;55017;52.848;6.748;2023-06-26T04:48:31;21.30;99.90
57058;DHT22;55017;52.848;6.748;2023-06-26T04:50:57;21.40;99.90
57058;DHT22;55017;52.848;6.748;2023-06-26T04:53:24;21.40;99.90
57058;DHT22;55017;52.848;6.748;2023-06-26T04:55:51;22.00;99.90
57058;DHT22;55017;52.848;6.748;2023-06-26T04:58:17;21.90;99.90
57058;DHT22;55017;52.848;6.748;2023-06-26T05:00:42;21.70;99.90
57058;DHT22;55017;52.848;6.748;2023-06-26T05:03:10;22.40;99.90
57058;DHT22;55017;52.848;6.748;2023-06-26T05:05:35;22.20;99.90
57058;DHT22;55017;52.848;6.748;2023-06-26T05:08:22;22.10;99.90
57058;DHT22;55017;52.848;6.748;2023-06-26T05:10:48;22.20;99.90
57058;DHT22;55017;52.848;6.748;2023-06-26T05:13:14;22.20;99.90
57058;DHT22;55017;52.848;6.748;2023-06-26T05:15:41;22.10;99.90
57058;DHT22;55017;52.848;6.748;2023-06-26T05:18:07;22.20;99.90
57058;DHT22;55017;52.848;6.748;2023-06-26T05:20:34;22.20;99.90
57058;DHT22;55017;52.848;6.748;2023-06-26T05:23:03;22.00;99.90
57058;DHT22;55017;52.848;6.748;2023-06-26T05:25:30;22.60;99.90
57058;DHT22;55017;52.848;6.748;2023-06-26T05:27:57;22.20;99.90
57058;DHT22;55017;52.848;6.748;2023-06-26T05:30:26;22.60;99.90
57058;DHT22;55017;52.848;6.748;2023-06-26T05:32:53;22.20;99.90
57058;DHT22;55017;52.848;6.748;2023-06-26T05:35:22;21.90;99.90
57058;DHT22;55017;52.848;6.748;2023-06-26T05:37:49;22.40;99.90
57058;DHT22;55017;52.848;6.748;2023-06-26T05:40:16;22.60;99.90
57058;DHT22;55017;52.848;6.748;2023-06-26T05:42:42;22.20;99.90
57058;DHT22;55017;52.848;6.748;2023-06-26T05:45:09;22.10;99.90
57058;DHT22;55017;52.848;6.748;2023-06-26T05:47:35;22.00;99.90
57058;DHT22;55017;52.848;6.748;2023-06-26T05:50:01;22.00;99.90
57058;DHT22;55017;52.848;6.748;2023-06-26T05:52:27;21.90;99.90
57058;DHT22;55017;52.848;6.748;2023-06-26T05:54:53;22.00;99.90
57058;DHT22;55017;52.848;6.748;2023-06-26T05:57:20;21.90;99.90
57058;DHT22;55017;52.848;6.748;2023-06-26T05:59:46;22.10;99.90
57058;DHT22;55017;52.848;6.748;2023-06-26T06:02:12;22.00;99.90
57058;DHT22;55017;52.848;6.748;2023-06-26T06:04:38;21.90;99.90
57058;DHT22;55017;52.848;6.748;2023-06-26T06:07:04;21.80;99.90
57058;DHT22;55017;52.848;6.748;2023-06-26T06:09:30;21.80;99.90
57058;DHT22;55017;52.848;6.748;2023-06-26T06:11:55;21.70;99.90
57058;DHT22;55017;52.848;6.748;2023-06-26T06:14:21;21.80;99.90
57058;DHT22;55017;52.848;6.748;2023-06-26T06:16:46;21.60;99.90
57058;DHT22;55017;52.848;6.748;2023-06-26T06:19:12;21.60;99.90
57058;DHT22;55017;52.848;6.748;2023-06-26T06:21:39;21.60;99.90
57058;DHT22;55017;52.848;6.748;2023-06-26T06:24:05;21.70;99.90
57058;DHT22;55017;52.848;6.748;2023-06-26T06:26:32;21.70;99.90
57058;DHT22;55017;52.848;6.748;2023-06-26T06:28:58;21.70;99.90
57058;DHT22;55017;52.848;6.748;2023-06-26T06:31:23;21.80;99.90
57058;DHT22;55017;52.848;6.748;2023-06-26T06:33:49;21.90;99.90
57058;DHT22;55017;52.848;6.748;2023-06-26T06:36:14;21.80;99.90
57058;DHT22;55017;52.848;6.748;2023-06-26T06:38:43;21.80;99.90
57058;DHT22;55017;52.848;6.748;2023-06-26T06:41:09;21.80;99.90
57058;DHT22;55017;52.848;6.748;2023-06-26T06:43:35;21.80;99.90
57058;DHT22;55017;52.848;6.748;2023-06-26T06:46:01;21.90;99.90
57058;DHT22;55017;52.848;6.748;2023-06-26T06:48:27;22.00;99.90
57058;DHT22;55017;52.848;6.748;2023-06-26T06:50:52;22.00;99.90
57058;DHT22;55017;52.848;6.748;2023-06-26T06:53:18;22.00;99.90
57058;DHT22;55017;52.848;6.748;2023-06-26T06:55:48;22.50;98.70
57058;DHT22;55017;52.848;6.748;2023-06-26T06:58:14;22.40;99.60
57058;DHT22;55017;52.848;6.748;2023-06-26T07:00:42;22.40;99.70
57058;DHT22;55017;52.848;6.748;2023-06-26T07:03:07;22.60;99.80
57058;DHT22;55017;52.848;6.748;2023-06-26T07:05:33;22.70;99.70
57058;DHT22;55017;52.848;6.748;2023-06-26T07:07:59;22.80;98.90
57058;DHT22;55017;52.848;6.748;2023-06-26T07:10:24;22.90;98.50
57058;DHT22;55017;52.848;6.748;2023-06-26T07:12:50;23.00;98.10
57058;DHT22;55017;52.848;6.748;2023-06-26T07:15:16;23.20;97.30
57058;DHT22;55017;52.848;6.748;2023-06-26T07:17:42;23.40;97.30
57058;DHT22;55017;52.848;6.748;2023-06-26T07:20:08;23.40;96.30
57058;DHT22;55017;52.848;6.748;2023-06-26T07:22:36;23.30;95.20
57058;DHT22;55017;52.848;6.748;2023-06-26T07:25:02;23.30;94.60
57058;DHT22;55017;52.848;6.748;2023-06-26T07:27:29;23.40;94.10
57058;DHT22;55017;52.848;6.748;2023-06-26T07:29:55;23.30;93.10
57058;DHT22;55017;52.848;6.748;2023-06-26T07:32:20;23.20;93.30
57058;DHT22;55017;52.848;6.748;2023-06-26T07:34:46;23.90;89.60
57058;DHT22;55017;52.848;6.748;2023-06-26T07:37:11;23.80;90.70
57058;DHT22;55017;52.848;6.748;2023-06-26T07:39:37;23.80;91.00
57058;DHT22;55017;52.848;6.748;2023-06-26T07:42:02;24.40;87.60
57058;DHT22;55017;52.848;6.748;2023-06-26T07:44:28;24.20;90.00
57058;DHT22;55017;52.848;6.748;2023-06-26T07:46:54;24.30;90.30
57058;DHT22;55017;52.848;6.748;2023-06-26T07:49:19;24.40;89.00
57058;DHT22;55017;52.848;6.748;2023-06-26T07:51:45;24.50;88.10
57058;DHT22;55017;52.848;6.748;2023-06-26T07:54:10;24.30;87.00
57058;DHT22;55017;52.848;6.748;2023-06-26T07:57:12;24.50;87.70
57058;DHT22;55017;52.848;6.748;2023-06-26T07:59:38;24.60;86.70
57058;DHT22;55017;52.848;6.748;2023-06-26T08:02:04;24.60;86.90
57058;DHT22;55017;52.848;6.748;2023-06-26T08:04:30;24.70;85.80
57058;DHT22;55017;52.848;6.748;2023-06-26T08:06:58;24.90;83.90
57058;DHT22;55017;52.848;6.748;2023-06-26T08:09:26;25.00;81.30
57058;DHT22;55017;52.848;6.748;2023-06-26T08:11:52;25.50;76.50
57058;DHT22;55017;52.848;6.748;2023-06-26T08:14:18;25.30;78.20
57058;DHT22;55017;52.848;6.748;2023-06-26T08:16:44;25.30;78.60
57058;DHT22;55017;52.848;6.748;2023-06-26T08:19:12;25.10;78.30
57058;DHT22;55017;52.848;6.748;2023-06-26T08:21:37;25.00;78.60
57058;DHT22;55017;52.848;6.748;2023-06-26T08:24:03;25.00;79.00
57058;DHT22;55017;52.848;6.748;2023-06-26T08:26:29;24.90;78.50
57058;DHT22;55017;52.848;6.748;2023-06-26T08:28:54;25.30;72.80
57058;DHT22;55017;52.848;6.748;2023-06-26T08:31:20;25.00;76.10
57058;DHT22;55017;52.848;6.748;2023-06-26T08:33:46;24.60;77.00
57058;DHT22;55017;52.848;6.748;2023-06-26T08:36:12;24.60;78.00
57058;DHT22;55017;52.848;6.748;2023-06-26T08:38:38;24.80;78.90
57058;DHT22;55017;52.848;6.748;2023-06-26T08:41:06;25.00;78.90
57058;DHT22;55017;52.848;6.748;2023-06-26T08:43:32;25.20;78.10
57058;DHT22;55017;52.848;6.748;2023-06-26T08:45:58;25.10;77.50
57058;DHT22;55017;52.848;6.748;2023-06-26T08:48:24;24.90;78.10
57058;DHT22;55017;52.848;6.748;2023-06-26T08:50:52;24.90;77.10
57058;DHT22;55017;52.848;6.748;2023-06-26T08:53:34;25.10;76.50
57058;DHT22;55017;52.848;6.748;2023-06-26T08:56:02;25.20;76.20
57058;DHT22;55017;52.848;6.748;2023-06-26T08:58:28;25.30;77.10
57058;DHT22;55017;52.848;6.748;2023-06-26T09:00:53;25.20;75.40
57058;DHT22;55017;52.848;6.748;2023-06-26T09:03:23;25.30;74.90
57058;DHT22;55017;52.848;6.748;2023-06-26T09:05:50;25.30;75.20
57058;DHT22;55017;52.848;6.748;2023-06-26T09:08:15;25.40;75.40
57058;DHT22;55017;52.848;6.748;2023-06-26T09:10:41;25.50;75.90
57058;DHT22;55017;52.848;6.748;2023-06-26T09:13:07;25.80;74.90
57058;DHT22;55017;52.848;6.748;2023-06-26T09:15:42;25.60;73.50
57058;DHT22;55017;52.848;6.748;2023-06-26T09:18:08;25.40;73.40
57058;DHT22;55017;52.848;6.748;2023-06-26T09:20:33;25.40;75.00
57058;DHT22;55017;52.848;6.748;2023-06-26T09:23:00;25.50;73.90
57058;DHT22;55017;52.848;6.748;2023-06-26T09:25:26;25.80;73.90
57058;DHT22;55017;52.848;6.748;2023-06-26T09:27:54;26.20;73.80
57058;DHT22;55017;52.848;6.748;2023-06-26T09:30:20;26.20;72.30
57058;DHT22;55017;52.848;6.748;2023-06-26T09:32:46;25.90;71.60
57058;DHT22;55017;52.848;6.748;2023-06-26T09:35:11;25.60;73.20
57058;DHT22;55017;52.848;6.748;2023-06-26T09:37:37;25.30;73.00
57058;DHT22;55017;52.848;6.748;2023-06-26T09:40:03;25.00;72.90
57058;DHT22;55017;52.848;6.748;2023-06-26T09:42:30;25.10;73.70
57058;DHT22;55017;52.848;6.748;2023-06-26T09:44:56;25.40;73.50
57058;DHT22;55017;52.848;6.748;2023-06-26T09:47:22;25.30;73.60
57058;DHT22;55017;52.848;6.748;2023-06-26T09:49:47;25.80;71.80
57058;DHT22;55017;52.848;6.748;2023-06-26T09:52:15;26.00;70.80
57058;DHT22;55017;52.848;6.748;2023-06-26T09:54:44;25.60;73.00
57058;DHT22;55017;52.848;6.748;2023-06-26T09:57:16;25.30;73.30
57058;DHT22;55017;52.848;6.748;2023-06-26T09:59:43;25.20;73.50
57058;DHT22;55017;52.848;6.748;2023-06-26T10:02:11;25.40;73.10
57058;DHT22;55017;52.848;6.748;2023-06-26T10:04:37;26.10;68.60
57058;DHT22;55017;52.848;6.748;2023-06-26T10:07:06;26.50;66.40
57058;DHT22;55017;52.848;6.748;2023-06-26T10:09:42;26.40;66.70
57058;DHT22;55017;52.848;6.748;2023-06-26T10:12:19;26.50;66.90
57058;DHT22;55017;52.848;6.748;2023-06-26T10:14:45;26.60;64.20
57058;DHT22;55017;52.848;6.748;2023-06-26T10:17:12;26.60;65.20
57058;DHT22;55017;52.848;6.748;2023-06-26T10:19:43;26.70;64.80
57058;DHT22;55017;52.848;6.748;2023-06-26T10:22:09;26.80;63.60
57058;DHT22;55017;52.848;6.748;2023-06-26T10:24:37;26.80;62.70
57058;DHT22;55017;52.848;6.748;2023-06-26T10:27:19;26.50;62.00
57058;DHT22;55017;52.848;6.748;2023-06-26T10:29:49;26.30;61.80
57058;DHT22;55017;52.848;6.748;2023-06-26T10:32:15;26.90;59.30
57058;DHT22;55017;52.848;6.748;2023-06-26T10:34:43;26.20;61.30
57058;DHT22;55017;52.848;6.748;2023-06-26T10:37:09;25.90;62.50
57058;DHT22;55017;52.848;6.748;2023-06-26T10:39:51;26.10;63.70
57058;DHT22;55017;52.848;6.748;2023-06-26T10:42:18;26.30;62.30
57058;DHT22;55017;52.848;6.748;2023-06-26T10:44:46;26.50;61.50
57058;DHT22;55017;52.848;6.748;2023-06-26T10:47:28;27.40;57.90
57058;DHT22;55017;52.848;6.748;2023-06-26T10:49:54;27.10;59.30
57058;DHT22;55017;52.848;6.748;2023-06-26T10:52:20;26.60;59.70
57058;DHT22;55017;52.848;6.748;2023-06-26T10:54:45;25.90;60.00
57058;DHT22;55017;52.848;6.748;2023-06-26T10:57:11;26.50;58.90
57058;DHT22;55017;52.848;6.748;2023-06-26T10:59:48;25.90;60.10
57058;DHT22;55017;52.848;6.748;2023-06-26T11:02:14;25.50;60.90
57058;DHT22;55017;52.848;6.748;2023-06-26T11:04:45;25.50;62.20
57058;DHT22;55017;52.848;6.748;2023-06-26T11:07:20;25.80;64.30
57058;DHT22;55017;52.848;6.748;2023-06-26T11:12:45;25.80;61.60
57058;DHT22;55017;52.848;6.748;2023-06-26T11:15:15;26.30;58.20
57058;DHT22;55017;52.848;6.748;2023-06-26T11:17:42;26.10;59.60
57058;DHT22;55017;52.848;6.748;2023-06-26T11:20:14;26.20;60.50
57058;DHT22;55017;52.848;6.748;2023-06-26T11:22:40;26.40;59.90
57058;DHT22;55017;52.848;6.748;2023-06-26T11:25:08;26.50;59.70
57058;DHT22;55017;52.848;6.748;2023-06-26T11:27:41;26.50;58.90
57058;DHT22;55017;52.848;6.748;2023-06-26T11:30:09;26.60;58.20
57058;DHT22;55017;52.848;6.748;2023-06-26T11:32:36;26.60;57.90
57058;DHT22;55017;52.848;6.748;2023-06-26T11:35:02;26.60;58.30
57058;DHT22;55017;52.848;6.748;2023-06-26T11:37:30;26.50;58.30
57058;DHT22;55017;52.848;6.748;2023-06-26T11:39:56;27.10;55.40
57058;DHT22;55017;52.848;6.748;2023-06-26T11:42:21;26.80;57.00
57058;DHT22;55017;52.848;6.748;2023-06-26T11:44:47;27.40;55.90
57058;DHT22;55017;52.848;6.748;2023-06-26T11:47:17;27.20;55.90
57058;DHT22;55017;52.848;6.748;2023-06-26T11:49:44;27.20;55.80
57058;DHT22;55017;52.848;6.748;2023-06-26T11:52:10;27.00;55.90
57058;DHT22;55017;52.848;6.748;2023-06-26T11:54:35;27.10;55.30
57058;DHT22;55017;52.848;6.748;2023-06-26T11:57:01;27.00;55.60
57058;DHT22;55017;52.848;6.748;2023-06-26T11:59:38;27.00;56.50
57058;DHT22;55017;52.848;6.748;2023-06-26T12:02:14;26.90;56.60
57058;DHT22;55017;52.848;6.748;2023-06-26T12:04:43;26.60;56.80
57058;DHT22;55017;52.848;6.748;2023-06-26T12:07:10;27.00;54.70
57058;DHT22;55017;52.848;6.748;2023-06-26T12:09:40;26.70;55.40
57058;DHT22;55017;52.848;6.748;2023-06-26T12:12:07;27.10;54.40
57058;DHT22;55017;52.848;6.748;2023-06-26T12:14:33;26.50;56.00
57058;DHT22;55017;52.848;6.748;2023-06-26T12:17:11;26.90;55.50
57058;DHT22;55017;52.848;6.748;2023-06-26T12:19:38;26.70;58.40
57058;DHT22;55017;52.848;6.748;2023-06-26T12:22:08;26.60;57.40
57058;DHT22;55017;52.848;6.748;2023-06-26T12:24:37;27.10;55.10
57058;DHT22;55017;52.848;6.748;2023-06-26T12:27:07;26.60;57.00
57058;DHT22;55017;52.848;6.748;2023-06-26T12:29:33;26.20;57.60
57058;DHT22;55017;52.848;6.748;2023-06-26T12:31:59;25.90;57.90
57058;DHT22;55017;52.848;6.748;2023-06-26T12:34:33;26.40;56.70
57058;DHT22;55017;52.848;6.748;2023-06-26T12:36:59;26.80;56.20
57058;DHT22;55017;52.848;6.748;2023-06-26T12:39:25;26.40;57.40
57058;DHT22;55017;52.848;6.748;2023-06-26T12:44:19;26.20;57.90
57058;DHT22;55017;52.848;6.748;2023-06-26T12:46:46;26.40;58.80
57058;DHT22;55017;52.848;6.748;2023-06-26T12:49:13;27.10;56.30
57058;DHT22;55017;52.848;6.748;2023-06-26T12:51:38;26.70;56.80
57058;DHT22;55017;52.848;6.748;2023-06-26T12:54:05;26.50;56.80
57058;DHT22;55017;52.848;6.748;2023-06-26T12:56:31;26.50;57.50
57058;DHT22;55017;52.848;6.748;2023-06-26T12:58:56;27.10;55.50
57058;DHT22;55017;52.848;6.748;2023-06-26T13:01:22;26.80;55.50
57058;DHT22;55017;52.848;6.748;2023-06-26T13:03:50;26.70;56.80
57058;DHT22;55017;52.848;6.748;2023-06-26T13:06:17;26.70;56.50
57058;DHT22;55017;52.848;6.748;2023-06-26T13:08:42;26.60;56.10
57058;DHT22;55017;52.848;6.748;2023-06-26T13:11:09;26.60;56.50
57058;DHT22;55017;52.848;6.748;2023-06-26T13:13:34;26.60;56.40
57058;DHT22;55017;52.848;6.748;2023-06-26T13:16:00;26.90;53.70
57058;DHT22;55017;52.848;6.748;2023-06-26T13:18:25;27.00;53.30
57058;DHT22;55017;52.848;6.748;2023-06-26T13:20:51;26.30;54.50
57058;DHT22;55017;52.848;6.748;2023-06-26T13:23:17;26.00;54.80
57058;DHT22;55017;52.848;6.748;2023-06-26T13:25:44;26.00;55.30
57058;DHT22;55017;52.848;6.748;2023-06-26T13:28:10;26.50;54.40
57058;DHT22;55017;52.848;6.748;2023-06-26T13:30:36;26.40;55.20
57058;DHT22;55017;52.848;6.748;2023-06-26T13:33:02;26.20;54.20
57058;DHT22;55017;52.848;6.748;2023-06-26T13:35:27;26.20;54.70
57058;DHT22;55017;52.848;6.748;2023-06-26T13:37:53;26.20;54.00
57058;DHT22;55017;52.848;6.748;2023-06-26T13:40:19;26.10;53.80
57058;DHT22;55017;52.848;6.748;2023-06-26T13:42:44;26.00;54.10
57058;DHT22;55017;52.848;6.748;2023-06-26T13:45:10;26.10;54.50
57058;DHT22;55017;52.848;6.748;2023-06-26T13:47:36;26.10;55.30
57058;DHT22;55017;52.848;6.748;2023-06-26T13:50:07;26.10;55.80
57058;DHT22;55017;52.848;6.748;2023-06-26T13:52:33;26.20;57.00
57058;DHT22;55017;52.848;6.748;2023-06-26T13:54:58;26.40;56.80
57058;DHT22;55017;52.848;6.748;2023-06-26T13:57:24;26.50;56.60
57058;DHT22;55017;52.848;6.748;2023-06-26T13:59:49;26.20;56.00
57058;DHT22;55017;52.848;6.748;2023-06-26T14:02:15;26.10;56.60
57058;DHT22;55017;52.848;6.748;2023-06-26T14:04:41;26.00;56.30
57058;DHT22;55017;52.848;6.748;2023-06-26T14:07:07;26.30;56.50
57058;DHT22;55017;52.848;6.748;2023-06-26T14:09:33;26.40;55.70
57058;DHT22;55017;52.848;6.748;2023-06-26T14:11:58;26.80;56.10
57058;DHT22;55017;52.848;6.748;2023-06-26T14:14:24;26.80;55.70
57058;DHT22;55017;52.848;6.748;2023-06-26T14:16:50;26.60;55.30
57058;DHT22;55017;52.848;6.748;2023-06-26T14:19:16;26.60;55.00
57058;DHT22;55017;52.848;6.748;2023-06-26T14:21:43;26.70;54.70
57058;DHT22;55017;52.848;6.748;2023-06-26T14:24:08;26.60;54.50
57058;DHT22;55017;52.848;6.748;2023-06-26T14:26:34;26.10;54.80
57058;DHT22;55017;52.848;6.748;2023-06-26T14:29:00;25.90;55.50
57058;DHT22;55017;52.848;6.748;2023-06-26T14:31:26;26.20;55.30
57058;DHT22;55017;52.848;6.748;2023-06-26T14:33:52;25.50;56.30
57058;DHT22;55017;52.848;6.748;2023-06-26T14:36:17;25.40;57.40
57058;DHT22;55017;52.848;6.748;2023-06-26T14:38:44;25.40;57.50
57058;DHT22;55017;52.848;6.748;2023-06-26T14:41:10;25.30;57.60
57058;DHT22;55017;52.848;6.748;2023-06-26T14:43:36;25.40;57.40
57058;DHT22;55017;52.848;6.748;2023-06-26T14:46:01;25.30;57.30
57058;DHT22;55017;52.848;6.748;2023-06-26T14:48:27;25.40;57.70
57058;DHT22;55017;52.848;6.748;2023-06-26T14:50:52;25.50;57.90
57058;DHT22;55017;52.848;6.748;2023-06-26T14:53:18;25.10;57.60
57058;DHT22;55017;52.848;6.748;2023-06-26T14:55:44;25.30;58.00
57058;DHT22;55017;52.848;6.748;2023-06-26T14:58:09;25.90;57.50
57058;DHT22;55017;52.848;6.748;2023-06-26T15:00:35;25.80;57.40
57058;DHT22;55017;52.848;6.748;2023-06-26T15:03:00;25.60;56.70
57058;DHT22;55017;52.848;6.748;2023-06-26T15:05:26;26.00;54.80
57058;DHT22;55017;52.848;6.748;2023-06-26T15:07:51;25.50;56.20
57058;DHT22;55017;52.848;6.748;2023-06-26T15:10:17;25.20;56.60
57058;DHT22;55017;52.848;6.748;2023-06-26T15:12:43;25.20;56.70
57058;DHT22;55017;52.848;6.748;2023-06-26T15:15:09;25.10;56.50
57058;DHT22;55017;52.848;6.748;2023-06-26T15:17:35;25.70;56.40
57058;DHT22;55017;52.848;6.748;2023-06-26T15:20:01;26.00;54.80
57058;DHT22;55017;52.848;6.748;2023-06-26T15:22:27;25.60;55.30
57058;DHT22;55017;52.848;6.748;2023-06-26T15:24:53;25.30;55.70
57058;DHT22;55017;52.848;6.748;2023-06-26T15:27:18;25.20;55.90
57058;DHT22;55017;52.848;6.748;2023-06-26T15:29:44;25.10;56.50
57058;DHT22;55017;52.848;6.748;2023-06-26T15:32:10;24.90;56.60
57058;DHT22;55017;52.848;6.748;2023-06-26T15:34:35;25.40;54.60
57058;DHT22;55017;52.848;6.748;2023-06-26T15:37:01;25.10;56.30
57058;DHT22;55017;52.848;6.748;2023-06-26T15:39:26;25.10;56.90